createdAt,value
2019-03-04T00:02:17.105Z,9.30
2019-03-04T00:06:22.445Z,9.20
2019-03-04T00:10:27.714Z,9.20
2019-03-04T00:14:33.109Z,9.20
2019-03-04T00:18:38.361Z,9.10
2019-03-04T00:22:43.718Z,9.10
2019-03-04T00:26:48.994Z,9.00
2019-03-04T00:30:54.390Z,8.90
2019-03-04T00:34:59.659Z,8.90
2019-03-04T00:39:08.034Z,8.90
2019-03-04T00:43:14.901Z,9.00
2019-03-04T00:47:25.703Z,9.00
2019-03-04T00:51:30.982Z,9.00
2019-03-04T00:55:36.241Z,9.10
2019-03-04T00:59:41.530Z,9.10
2019-03-04T01:03:46.836Z,9.10
2019-03-04T01:07:52.133Z,9.10
2019-03-04T01:11:57.406Z,9.20
2019-03-04T01:16:02.673Z,9.20
2019-03-04T01:20:15.840Z,9.20
2019-03-04T01:24:21.098Z,9.10
2019-03-04T01:28:26.365Z,9.00
2019-03-04T01:32:31.630Z,8.90
2019-03-04T01:36:36.910Z,8.90
2019-03-04T01:40:42.278Z,8.90
2019-03-04T01:44:47.707Z,8.80
2019-03-04T01:48:52.922Z,8.90
2019-03-04T01:52:58.202Z,8.90
2019-03-04T01:57:03.488Z,8.80
2019-03-04T02:01:08.756Z,8.80
2019-03-04T02:05:14.227Z,8.70
2019-03-04T02:09:19.626Z,8.60
2019-03-04T02:13:24.903Z,8.60
2019-03-04T02:17:30.241Z,8.50
2019-03-04T02:21:35.606Z,8.40
2019-03-04T02:25:46.675Z,8.50
2019-03-04T02:29:51.922Z,8.30
2019-03-04T02:33:57.204Z,8.30
2019-03-04T02:38:02.473Z,8.20
2019-03-04T02:42:07.800Z,8.20
2019-03-04T02:46:13.133Z,8.10
2019-03-04T02:50:18.377Z,8.10
2019-03-04T02:54:23.690Z,8.10
2019-03-04T02:58:28.977Z,8.10
2019-03-04T03:02:34.283Z,8.10
2019-03-04T03:06:39.547Z,8.20
2019-03-04T03:10:44.665Z,8.20
2019-03-04T03:14:49.933Z,8.10
2019-03-04T03:18:55.207Z,8.10
2019-03-04T03:23:00.484Z,8.10
2019-03-04T03:27:05.761Z,8.10
2019-03-04T03:31:11.054Z,8.10
2019-03-04T03:35:16.283Z,8.10
2019-03-04T03:39:21.551Z,8.00
2019-03-04T03:43:26.887Z,8.10
2019-03-04T03:47:32.143Z,8.20
2019-03-04T03:51:37.419Z,8.20
2019-03-04T03:55:42.659Z,8.50
2019-03-04T03:59:47.932Z,8.60
2019-03-04T04:03:54.179Z,8.70
2019-03-04T04:07:59.518Z,9.00
2019-03-04T04:12:04.858Z,9.20
2019-03-04T04:16:10.095Z,9.20
2019-03-04T04:20:15.541Z,9.30
2019-03-04T04:24:20.795Z,9.40
2019-03-04T04:28:26.122Z,9.40
2019-03-04T04:32:31.388Z,9.50
2019-03-04T04:36:36.652Z,9.40
2019-03-04T04:40:41.904Z,9.20
2019-03-04T04:44:47.156Z,9.10
2019-03-04T04:48:52.441Z,9.20
2019-03-04T04:52:57.682Z,9.20
2019-03-04T04:57:02.954Z,9.10
2019-03-04T05:01:08.210Z,9.10
2019-03-04T05:05:13.711Z,9.00
2019-03-04T05:09:19.009Z,9.20
2019-03-04T05:13:24.290Z,9.40
2019-03-04T05:17:29.565Z,9.40
2019-03-04T05:21:34.810Z,9.60
2019-03-04T05:25:40.070Z,9.90
2019-03-04T05:29:46.069Z,10.10
2019-03-04T05:33:51.475Z,10.20
2019-03-04T05:37:56.718Z,10.20
2019-03-04T05:42:02.086Z,10.30
2019-03-04T05:46:07.343Z,10.40
2019-03-04T05:50:24.014Z,10.60
2019-03-04T05:54:29.281Z,10.70
2019-03-04T05:58:34.557Z,10.80
2019-03-04T06:02:39.942Z,10.90
2019-03-04T06:06:47.103Z,10.90
2019-03-04T06:10:52.378Z,10.90
2019-03-04T06:14:57.669Z,10.90
2019-03-04T06:19:02.937Z,11.00
2019-03-04T06:23:08.570Z,11.00
2019-03-04T06:27:13.821Z,10.90
2019-03-04T06:31:19.157Z,11.00
2019-03-04T06:35:25.518Z,11.00
2019-03-04T06:39:30.794Z,11.00
2019-03-04T06:43:36.155Z,11.10
2019-03-04T06:47:41.426Z,11.20
2019-03-04T06:51:46.678Z,11.40
2019-03-04T06:56:13.091Z,11.50
2019-03-04T07:00:27.027Z,11.70
2019-03-04T07:04:38.055Z,11.80
2019-03-04T07:08:46.455Z,12.10
2019-03-04T07:12:51.733Z,12.20
2019-03-04T07:16:57.040Z,12.40
2019-03-04T07:21:02.298Z,12.60
2019-03-04T07:25:09.409Z,12.70
2019-03-04T07:29:15.133Z,13.10
2019-03-04T07:33:20.563Z,13.60
2019-03-04T07:37:25.818Z,13.60
2019-03-04T07:41:31.094Z,13.60
2019-03-04T07:45:36.651Z,13.70
2019-03-04T07:49:43.558Z,13.90
2019-03-04T07:53:48.860Z,13.80
2019-03-04T07:57:54.162Z,13.70
2019-03-04T08:01:59.439Z,13.50
2019-03-04T08:06:05.079Z,13.20
2019-03-04T08:10:25.170Z,12.90
2019-03-04T08:14:30.444Z,12.80
2019-03-04T08:18:35.723Z,12.80
2019-03-04T08:22:41.038Z,13.00
2019-03-04T08:26:46.346Z,13.20
2019-03-04T08:30:51.743Z,13.60
2019-03-04T08:34:57.080Z,14.10
2019-03-04T08:39:02.444Z,14.30
2019-03-04T08:43:09.267Z,14.40
2019-03-04T08:47:14.543Z,14.70
2019-03-04T08:51:19.814Z,15.20
2019-03-04T08:55:25.178Z,15.50
2019-03-04T08:59:30.442Z,17.30
2019-03-04T09:03:35.834Z,19.50
2019-03-04T09:07:41.178Z,21.00
2019-03-04T09:11:46.503Z,21.80
2019-03-04T09:15:51.863Z,22.10
2019-03-04T09:19:57.175Z,21.30
2019-03-04T09:24:02.437Z,21.40
2019-03-04T09:28:07.774Z,20.60
2019-03-04T09:32:13.115Z,19.70
2019-03-04T09:36:18.506Z,18.30
2019-03-04T09:40:28.962Z,17.40
2019-03-04T09:44:34.302Z,17.40
2019-03-04T09:48:39.584Z,20.00
2019-03-04T09:52:44.933Z,21.70
2019-03-04T09:56:50.267Z,23.20
2019-03-04T10:01:07.669Z,21.10
2019-03-04T10:05:30.457Z,21.50
2019-03-04T10:09:38.811Z,23.10
2019-03-04T10:14:09.516Z,21.00
2019-03-04T10:18:26.841Z,17.90
2019-03-04T10:22:44.151Z,16.80
2019-03-04T10:26:55.124Z,16.40
2019-03-04T10:31:06.417Z,16.10
2019-03-04T10:35:20.488Z,15.50
2019-03-04T10:39:37.694Z,15.10
2019-03-04T10:43:46.082Z,15.60
2019-03-04T10:47:51.353Z,16.00
2019-03-04T10:51:57.601Z,15.80
2019-03-04T10:56:02.861Z,16.00
2019-03-04T11:00:16.287Z,17.40
2019-03-04T11:04:21.671Z,19.00
2019-03-04T11:08:26.944Z,20.00
2019-03-04T11:12:32.365Z,20.70
2019-03-04T11:16:37.714Z,19.20
2019-03-04T11:20:43.050Z,18.70
2019-03-04T11:24:48.453Z,20.10
2019-03-04T11:28:53.765Z,19.90
2019-03-04T11:32:59.213Z,17.90
2019-03-04T11:37:04.874Z,17.40
2019-03-04T11:41:15.757Z,17.60
2019-03-04T11:45:21.040Z,16.50
2019-03-04T11:49:26.343Z,16.40
2019-03-04T11:53:31.606Z,18.00
2019-03-04T11:57:36.877Z,18.60
2019-03-04T12:01:43.924Z,20.10
2019-03-04T12:05:49.194Z,19.60
2019-03-04T12:09:54.441Z,18.30
2019-03-04T12:14:00.686Z,17.70
2019-03-04T12:18:06.085Z,18.60
2019-03-04T12:22:11.357Z,18.10
2019-03-04T12:26:18.470Z,17.90
2019-03-04T12:30:25.929Z,17.50
2019-03-04T12:34:31.174Z,16.60
2019-03-04T12:38:36.448Z,15.80
2019-03-04T12:42:41.727Z,15.80
2019-03-04T12:46:46.989Z,15.70
2019-03-04T12:50:52.299Z,15.20
2019-03-04T12:54:57.522Z,14.60
2019-03-04T12:59:03.213Z,14.20
2019-03-04T13:03:11.622Z,13.80
2019-03-04T13:07:16.909Z,13.80
2019-03-04T13:11:22.203Z,13.30
2019-03-04T13:15:32.134Z,12.60
2019-03-04T13:19:37.425Z,12.50
2019-03-04T13:23:42.975Z,12.70
2019-03-04T13:27:48.267Z,13.00
2019-03-04T13:31:53.569Z,13.00
2019-03-04T13:35:58.910Z,12.90
2019-03-04T13:40:06.876Z,12.90
2019-03-04T13:44:12.470Z,12.80
2019-03-04T13:48:17.822Z,12.90
2019-03-04T13:52:23.082Z,12.80
2019-03-04T13:56:28.609Z,12.70
2019-03-04T14:00:38.962Z,12.60
2019-03-04T14:04:44.247Z,12.60
2019-03-04T14:08:49.606Z,12.50
2019-03-04T14:12:55.005Z,12.30
2019-03-04T14:17:00.349Z,12.30
2019-03-04T14:21:05.785Z,12.20
2019-03-04T14:25:13.065Z,12.20
2019-03-04T14:29:18.751Z,12.10
2019-03-04T14:33:24.010Z,12.10
2019-03-04T14:37:29.287Z,12.10
2019-03-04T14:41:34.551Z,12.10
2019-03-04T14:45:39.825Z,12.00
2019-03-04T14:49:45.251Z,11.90
2019-03-04T14:53:50.594Z,11.90
2019-03-04T14:57:55.898Z,11.90
2019-03-04T15:02:01.149Z,11.90
2019-03-04T15:06:07.253Z,11.90
2019-03-04T15:10:14.922Z,11.90
2019-03-04T15:14:20.270Z,11.80
2019-03-04T15:18:25.618Z,11.60
2019-03-04T15:22:34.824Z,11.50
2019-03-04T15:26:41.969Z,11.50
2019-03-04T15:30:46.777Z,11.50
2019-03-04T15:34:52.058Z,11.40
2019-03-04T15:38:57.406Z,11.50
2019-03-04T15:43:03.312Z,11.70
2019-03-04T15:47:08.638Z,11.60
2019-03-04T15:51:15.827Z,11.50
2019-03-04T15:55:21.422Z,11.40
2019-03-04T15:59:26.834Z,11.20
2019-03-04T16:03:32.134Z,11.10
2019-03-04T16:07:38.538Z,11.00
2019-03-04T16:11:43.914Z,11.00
2019-03-04T16:15:49.418Z,10.90
2019-03-04T16:19:54.848Z,10.70
2019-03-04T16:24:00.063Z,10.40
2019-03-04T16:28:08.530Z,9.80
2019-03-04T16:32:13.848Z,8.90
2019-03-04T16:36:19.385Z,8.40
2019-03-04T16:40:27.478Z,8.20
2019-03-04T16:44:33.329Z,8.00
2019-03-04T16:48:38.602Z,7.80
2019-03-04T16:52:45.891Z,7.70
2019-03-04T16:56:51.151Z,7.60
2019-03-04T17:00:56.481Z,7.50
2019-03-04T17:05:01.782Z,7.50
2019-03-04T17:09:15.666Z,7.50
2019-03-04T17:13:20.977Z,7.50
2019-03-04T17:17:26.350Z,7.50
2019-03-04T17:21:31.601Z,7.70
2019-03-04T17:25:37.138Z,7.70
2019-03-04T17:29:42.478Z,7.70
2019-03-04T17:33:47.754Z,7.70
2019-03-04T17:37:53.237Z,7.70
2019-03-04T17:41:58.589Z,7.70
2019-03-04T17:46:04.601Z,7.70
2019-03-04T17:50:13.021Z,7.70
2019-03-04T17:54:18.414Z,7.80
2019-03-04T17:58:26.682Z,7.90
2019-03-04T18:02:32.200Z,7.80
2019-03-04T18:06:37.602Z,7.50
2019-03-04T18:10:42.587Z,6.60
2019-03-04T18:14:47.573Z,5.60
2019-03-04T18:18:54.165Z,5.20
2019-03-04T18:22:59.135Z,4.90
2019-03-04T18:27:04.370Z,4.90
2019-03-04T18:31:13.570Z,4.80
2019-03-04T18:35:27.589Z,4.80
2019-03-04T18:40:08.962Z,4.80
2019-03-04T18:44:40.736Z,4.80
2019-03-04T18:48:59.452Z,4.80
2019-03-04T18:53:04.566Z,4.70
2019-03-04T18:57:09.627Z,4.70
2019-03-04T19:01:16.398Z,4.70
2019-03-04T19:05:22.258Z,4.60
2019-03-04T19:09:27.318Z,4.40
2019-03-04T19:13:33.994Z,4.20
2019-03-04T19:17:38.986Z,4.20
2019-03-04T19:21:43.974Z,4.10
2019-03-04T19:25:49.053Z,4.10
2019-03-04T19:29:54.047Z,4.10
2019-03-04T19:33:59.018Z,4.20
2019-03-04T19:38:03.998Z,4.20
2019-03-04T19:42:09.056Z,4.20
2019-03-04T19:46:14.182Z,4.10
2019-03-04T19:50:19.334Z,4.10
2019-03-04T19:54:24.329Z,4.00
2019-03-04T19:58:29.444Z,4.00
2019-03-04T20:02:35.553Z,4.00
2019-03-04T20:06:40.697Z,3.90
2019-03-04T20:10:46.040Z,3.80
2019-03-04T20:14:51.041Z,3.80
2019-03-04T20:18:56.020Z,3.70
2019-03-04T20:23:01.144Z,3.70
2019-03-04T20:27:06.380Z,3.70
2019-03-04T20:31:11.750Z,3.60
2019-03-04T20:35:17.766Z,3.60
2019-03-04T20:39:23.086Z,3.60
2019-03-04T20:43:28.146Z,3.60
2019-03-04T20:47:34.282Z,3.60
2019-03-04T20:51:39.248Z,3.70
2019-03-04T20:55:44.418Z,3.60
2019-03-04T20:59:49.386Z,3.60
2019-03-04T21:03:54.706Z,3.60
2019-03-04T21:07:59.921Z,3.60
2019-03-04T21:12:05.373Z,3.60
2019-03-04T21:16:11.706Z,3.60
2019-03-04T21:20:17.913Z,3.50
2019-03-04T21:24:23.701Z,3.50
2019-03-04T21:28:59.981Z,3.40
2019-03-04T21:33:14.843Z,3.40
2019-03-04T21:37:31.782Z,3.60
2019-03-04T21:41:40.037Z,3.60
2019-03-04T21:46:20.985Z,3.70
2019-03-04T21:50:41.670Z,3.70
2019-03-04T21:54:47.183Z,3.70
2019-03-04T21:58:54.695Z,3.70
2019-03-04T22:03:06.148Z,3.60
2019-03-04T22:07:12.150Z,3.60
2019-03-04T22:11:17.285Z,3.60
2019-03-04T22:15:22.286Z,3.60
2019-03-04T22:19:27.277Z,3.50
2019-03-04T22:23:32.348Z,3.50
2019-03-04T22:27:37.343Z,3.50
2019-03-04T22:31:43.163Z,3.50
2019-03-04T22:35:48.154Z,3.60
2019-03-04T22:39:53.164Z,3.60
2019-03-04T22:43:58.259Z,3.60
2019-03-04T22:48:03.289Z,3.60
2019-03-04T22:52:08.313Z,3.60
2019-03-04T22:56:13.454Z,3.60
2019-03-04T23:00:42.915Z,3.70
2019-03-04T23:04:49.703Z,3.70
2019-03-04T23:08:54.769Z,3.80
2019-03-04T23:13:00.027Z,3.80
2019-03-04T23:17:05.340Z,3.70
2019-03-04T23:21:10.330Z,3.70
2019-03-04T23:25:15.323Z,3.80
2019-03-04T23:29:20.318Z,3.80
2019-03-04T23:33:25.403Z,3.90
2019-03-04T23:37:30.391Z,3.80
2019-03-04T23:41:35.410Z,3.80
2019-03-04T23:45:40.473Z,3.80
2019-03-04T23:49:46.868Z,3.80
2019-03-04T23:53:51.789Z,3.80
2019-03-04T23:57:56.781Z,3.70
